sensor_id;sensor_type;location;lat;lon;timestamp;P1;durP1;ratioP1;P2;durP2;ratioP2
8458;SDS011;4266;48.816;9.154;2023-09-12T00:00:37;14.27;;;9.10;;
8458;SDS011;4266;48.816;9.154;2023-09-12T00:03:03;16.30;;;9.18;;
8458;SDS011;4266;48.816;9.154;2023-09-12T00:05:29;14.57;;;10.60;;
8458;SDS011;4266;48.816;9.154;2023-09-12T00:07:55;12.02;;;10.40;;
8458;SDS011;4266;48.816;9.154;2023-09-12T00:10:22;15.27;;;9.88;;
8458;SDS011;4266;48.816;9.154;2023-09-12T00:12:48;14.35;;;10.95;;
8458;SDS011;4266;48.816;9.154;2023-09-12T00:15:15;9.23;;;7.70;;
8458;SDS011;4266;48.816;9.154;2023-09-12T00:17:40;17.60;;;10.48;;
8458;SDS011;4266;48.816;9.154;2023-09-12T00:20:07;12.80;;;9.73;;
8458;SDS011;4266;48.816;9.154;2023-09-12T00:22:33;13.93;;;9.93;;
8458;SDS011;4266;48.816;9.154;2023-09-12T00:24:59;10.20;;;9.25;;
8458;SDS011;4266;48.816;9.154;2023-09-12T00:27:24;14.15;;;11.38;;
8458;SDS011;4266;48.816;9.154;2023-09-12T00:29:50;15.88;;;12.05;;
8458;SDS011;4266;48.816;9.154;2023-09-12T00:32:16;12.85;;;10.38;;
8458;SDS011;4266;48.816;9.154;2023-09-12T00:34:41;15.63;;;10.00;;
8458;SDS011;4266;48.816;9.154;2023-09-12T00:37:07;14.43;;;11.40;;
8458;SDS011;4266;48.816;9.154;2023-09-12T00:39:33;11.15;;;10.05;;
8458;SDS011;4266;48.816;9.154;2023-09-12T00:41:59;11.30;;;8.73;;
8458;SDS011;4266;48.816;9.154;2023-09-12T00:44:26;14.32;;;9.70;;
8458;SDS011;4266;48.816;9.154;2023-09-12T00:46:51;13.55;;;10.82;;
8458;SDS011;4266;48.816;9.154;2023-09-12T00:49:17;13.98;;;9.20;;
8458;SDS011;4266;48.816;9.154;2023-09-12T00:51:44;10.90;;;9.38;;
8458;SDS011;4266;48.816;9.154;2023-09-12T00:54:09;12.90;;;8.45;;
8458;SDS011;4266;48.816;9.154;2023-09-12T00:56:35;14.32;;;9.18;;
8458;SDS011;4266;48.816;9.154;2023-09-12T00:59:01;12.77;;;9.60;;
8458;SDS011;4266;48.816;9.154;2023-09-12T01:01:26;16.15;;;10.10;;
8458;SDS011;4266;48.816;9.154;2023-09-12T01:03:52;20.30;;;9.75;;
8458;SDS011;4266;48.816;9.154;2023-09-12T02:03:32;10.27;;;9.20;;
8458;SDS011;4266;48.816;9.154;2023-09-12T02:05:58;13.95;;;9.40;;
8458;SDS011;4266;48.816;9.154;2023-09-12T02:08:23;10.35;;;9.38;;
8458;SDS011;4266;48.816;9.154;2023-09-12T02:10:49;13.48;;;9.70;;
8458;SDS011;4266;48.816;9.154;2023-09-12T02:13:15;16.65;;;10.35;;
8458;SDS011;4266;48.816;9.154;2023-09-12T02:15:40;12.73;;;10.10;;
8458;SDS011;4266;48.816;9.154;2023-09-12T02:18:07;15.25;;;10.27;;
8458;SDS011;4266;48.816;9.154;2023-09-12T02:20:32;14.18;;;9.35;;
8458;SDS011;4266;48.816;9.154;2023-09-12T02:22:58;12.73;;;9.90;;
8458;SDS011;4266;48.816;9.154;2023-09-12T02:25:24;14.85;;;11.27;;
8458;SDS011;4266;48.816;9.154;2023-09-12T02:27:50;13.50;;;10.88;;
8458;SDS011;4266;48.816;9.154;2023-09-12T02:30:16;19.37;;;11.57;;
8458;SDS011;4266;48.816;9.154;2023-09-12T02:32:42;13.65;;;11.30;;
8458;SDS011;4266;48.816;9.154;2023-09-12T02:35:07;13.23;;;11.07;;
8458;SDS011;4266;48.816;9.154;2023-09-12T02:37:33;14.02;;;10.88;;
8458;SDS011;4266;48.816;9.154;2023-09-12T02:39:59;17.40;;;11.82;;
8458;SDS011;4266;48.816;9.154;2023-09-12T02:42:25;20.02;;;11.32;;
8458;SDS011;4266;48.816;9.154;2023-09-12T02:44:52;14.05;;;11.65;;
8458;SDS011;4266;48.816;9.154;2023-09-12T02:47:17;15.00;;;11.20;;
8458;SDS011;4266;48.816;9.154;2023-09-12T02:49:43;14.63;;;11.70;;
8458;SDS011;4266;48.816;9.154;2023-09-12T02:52:09;16.35;;;12.13;;
8458;SDS011;4266;48.816;9.154;2023-09-12T02:54:35;14.02;;;10.82;;
8458;SDS011;4266;48.816;9.154;2023-09-12T02:57:00;13.00;;;11.57;;
8458;SDS011;4266;48.816;9.154;2023-09-12T02:59:26;16.30;;;11.60;;
8458;SDS011;4266;48.816;9.154;2023-09-12T03:01:53;17.95;;;11.43;;
8458;SDS011;4266;48.816;9.154;2023-09-12T03:04:18;13.77;;;11.60;;
8458;SDS011;4266;48.816;9.154;2023-09-12T03:06:44;18.05;;;11.98;;
8458;SDS011;4266;48.816;9.154;2023-09-12T03:09:10;15.05;;;10.52;;
8458;SDS011;4266;48.816;9.154;2023-09-12T03:11:37;12.00;;;9.77;;
8458;SDS011;4266;48.816;9.154;2023-09-12T03:14:02;13.20;;;10.55;;
8458;SDS011;4266;48.816;9.154;2023-09-12T03:16:28;12.70;;;10.70;;
8458;SDS011;4266;48.816;9.154;2023-09-12T03:18:54;17.20;;;12.23;;
8458;SDS011;4266;48.816;9.154;2023-09-12T03:21:20;11.98;;;10.05;;
8458;SDS011;4266;48.816;9.154;2023-09-12T03:23:47;12.98;;;10.40;;
8458;SDS011;4266;48.816;9.154;2023-09-12T03:26:13;12.48;;;10.18;;
8458;SDS011;4266;48.816;9.154;2023-09-12T03:28:38;14.35;;;9.93;;
8458;SDS011;4266;48.816;9.154;2023-09-12T03:31:09;13.15;;;10.07;;
8458;SDS011;4266;48.816;9.154;2023-09-12T03:33:35;11.63;;;9.50;;
8458;SDS011;4266;48.816;9.154;2023-09-12T03:36:00;15.45;;;11.65;;
8458;SDS011;4266;48.816;9.154;2023-09-12T03:38:27;18.45;;;10.68;;
8458;SDS011;4266;48.816;9.154;2023-09-12T03:40:52;14.40;;;12.48;;
8458;SDS011;4266;48.816;9.154;2023-09-12T03:43:18;15.40;;;11.68;;
8458;SDS011;4266;48.816;9.154;2023-09-12T03:45:45;17.95;;;12.15;;
8458;SDS011;4266;48.816;9.154;2023-09-12T03:48:11;21.00;;;11.82;;
8458;SDS011;4266;48.816;9.154;2023-09-12T03:50:37;16.95;;;12.82;;
8458;SDS011;4266;48.816;9.154;2023-09-12T03:53:04;18.50;;;11.60;;
8458;SDS011;4266;48.816;9.154;2023-09-12T03:55:30;18.15;;;11.57;;
8458;SDS011;4266;48.816;9.154;2023-09-12T03:57:57;18.37;;;12.02;;
8458;SDS011;4266;48.816;9.154;2023-09-12T04:00:23;15.80;;;12.95;;
8458;SDS011;4266;48.816;9.154;2023-09-12T04:02:48;12.85;;;10.98;;
8458;SDS011;4266;48.816;9.154;2023-09-12T04:05:15;18.67;;;12.07;;
8458;SDS011;4266;48.816;9.154;2023-09-12T04:07:41;13.52;;;9.50;;
8458;SDS011;4266;48.816;9.154;2023-09-12T04:10:07;22.00;;;10.15;;
8458;SDS011;4266;48.816;9.154;2023-09-12T04:12:33;16.65;;;11.80;;
8458;SDS011;4266;48.816;9.154;2023-09-12T04:14:59;14.40;;;11.40;;
8458;SDS011;4266;48.816;9.154;2023-09-12T04:17:25;14.85;;;10.88;;
8458;SDS011;4266;48.816;9.154;2023-09-12T04:19:51;15.52;;;10.50;;
8458;SDS011;4266;48.816;9.154;2023-09-12T04:22:17;13.77;;;12.30;;
8458;SDS011;4266;48.816;9.154;2023-09-12T04:24:43;15.98;;;10.60;;
8458;SDS011;4266;48.816;9.154;2023-09-12T04:27:09;14.32;;;10.27;;
8458;SDS011;4266;48.816;9.154;2023-09-12T04:29:36;10.75;;;9.60;;
8458;SDS011;4266;48.816;9.154;2023-09-12T04:32:03;10.52;;;9.13;;
8458;SDS011;4266;48.816;9.154;2023-09-12T04:34:30;9.80;;;8.73;;
8458;SDS011;4266;48.816;9.154;2023-09-12T04:36:56;17.05;;;11.27;;
8458;SDS011;4266;48.816;9.154;2023-09-12T04:39:21;14.82;;;11.25;;
8458;SDS011;4266;48.816;9.154;2023-09-12T04:41:47;15.50;;;10.93;;
8458;SDS011;4266;48.816;9.154;2023-09-12T04:44:13;17.12;;;12.10;;
8458;SDS011;4266;48.816;9.154;2023-09-12T04:46:39;14.15;;;11.05;;
8458;SDS011;4266;48.816;9.154;2023-09-12T04:49:05;18.35;;;11.60;;
8458;SDS011;4266;48.816;9.154;2023-09-12T04:51:31;27.13;;;13.43;;
8458;SDS011;4266;48.816;9.154;2023-09-12T04:53:56;17.30;;;12.40;;
8458;SDS011;4266;48.816;9.154;2023-09-12T04:56:24;18.98;;;11.35;;
8458;SDS011;4266;48.816;9.154;2023-09-12T04:58:50;17.75;;;12.50;;
8458;SDS011;4266;48.816;9.154;2023-09-12T05:01:15;16.45;;;10.80;;
8458;SDS011;4266;48.816;9.154;2023-09-12T05:03:41;21.67;;;12.75;;
8458;SDS011;4266;48.816;9.154;2023-09-12T05:06:07;19.17;;;11.50;;
8458;SDS011;4266;48.816;9.154;2023-09-12T05:08:33;14.43;;;9.68;;
8458;SDS011;4266;48.816;9.154;2023-09-12T05:10:59;26.80;;;11.55;;
8458;SDS011;4266;48.816;9.154;2023-09-12T05:13:24;11.20;;;9.80;;
8458;SDS011;4266;48.816;9.154;2023-09-12T05:15:50;17.12;;;12.50;;
8458;SDS011;4266;48.816;9.154;2023-09-12T05:18:16;14.05;;;10.82;;
8458;SDS011;4266;48.816;9.154;2023-09-12T05:20:41;15.63;;;12.20;;
8458;SDS011;4266;48.816;9.154;2023-09-12T05:23:07;16.12;;;11.60;;
8458;SDS011;4266;48.816;9.154;2023-09-12T05:25:33;14.57;;;9.20;;
8458;SDS011;4266;48.816;9.154;2023-09-12T05:27:58;17.58;;;11.52;;
8458;SDS011;4266;48.816;9.154;2023-09-12T05:30:24;15.00;;;10.80;;
8458;SDS011;4266;48.816;9.154;2023-09-12T05:32:50;12.52;;;8.63;;
8458;SDS011;4266;48.816;9.154;2023-09-12T05:35:15;11.27;;;9.10;;
8458;SDS011;4266;48.816;9.154;2023-09-12T05:37:41;13.23;;;9.05;;
8458;SDS011;4266;48.816;9.154;2023-09-12T05:40:07;12.05;;;8.30;;
8458;SDS011;4266;48.816;9.154;2023-09-12T05:42:34;9.60;;;8.68;;
8458;SDS011;4266;48.816;9.154;2023-09-12T05:45:00;10.65;;;8.45;;
8458;SDS011;4266;48.816;9.154;2023-09-12T05:47:25;14.10;;;9.93;;
8458;SDS011;4266;48.816;9.154;2023-09-12T05:49:52;12.20;;;9.57;;
8458;SDS011;4266;48.816;9.154;2023-09-12T05:52:18;14.50;;;9.45;;
8458;SDS011;4266;48.816;9.154;2023-09-12T05:54:44;15.70;;;10.65;;
8458;SDS011;4266;48.816;9.154;2023-09-12T05:57:10;14.27;;;11.48;;
8458;SDS011;4266;48.816;9.154;2023-09-12T05:59:36;14.23;;;10.73;;
8458;SDS011;4266;48.816;9.154;2023-09-12T06:02:02;18.33;;;11.20;;
8458;SDS011;4266;48.816;9.154;2023-09-12T06:04:28;13.77;;;10.85;;
8458;SDS011;4266;48.816;9.154;2023-09-12T06:06:53;15.48;;;11.27;;
8458;SDS011;4266;48.816;9.154;2023-09-12T06:09:19;16.25;;;11.32;;
8458;SDS011;4266;48.816;9.154;2023-09-12T06:11:45;17.23;;;11.80;;
8458;SDS011;4266;48.816;9.154;2023-09-12T06:14:10;17.30;;;12.00;;
8458;SDS011;4266;48.816;9.154;2023-09-12T06:16:36;25.73;;;12.32;;
8458;SDS011;4266;48.816;9.154;2023-09-12T06:19:02;19.23;;;12.90;;
8458;SDS011;4266;48.816;9.154;2023-09-12T06:21:28;25.95;;;12.50;;
8458;SDS011;4266;48.816;9.154;2023-09-12T06:26:33;19.10;;;12.02;;
8458;SDS011;4266;48.816;9.154;2023-09-12T06:28:59;19.50;;;11.93;;
8458;SDS011;4266;48.816;9.154;2023-09-12T06:31:25;25.60;;;13.02;;
8458;SDS011;4266;48.816;9.154;2023-09-12T06:33:50;21.23;;;12.90;;
8458;SDS011;4266;48.816;9.154;2023-09-12T06:36:16;24.52;;;12.68;;
8458;SDS011;4266;48.816;9.154;2023-09-12T06:38:42;29.77;;;12.25;;
8458;SDS011;4266;48.816;9.154;2023-09-12T06:41:08;18.20;;;12.13;;
8458;SDS011;4266;48.816;9.154;2023-09-12T06:43:34;18.75;;;12.05;;
8458;SDS011;4266;48.816;9.154;2023-09-12T06:46:00;15.18;;;11.55;;
8458;SDS011;4266;48.816;9.154;2023-09-12T06:48:27;19.15;;;12.43;;
8458;SDS011;4266;48.816;9.154;2023-09-12T06:50:54;19.10;;;11.80;;
8458;SDS011;4266;48.816;9.154;2023-09-12T06:53:20;20.60;;;12.10;;
8458;SDS011;4266;48.816;9.154;2023-09-12T06:55:46;12.85;;;11.27;;
8458;SDS011;4266;48.816;9.154;2023-09-12T06:58:12;23.75;;;11.75;;
8458;SDS011;4266;48.816;9.154;2023-09-12T07:00:38;12.63;;;11.30;;
8458;SDS011;4266;48.816;9.154;2023-09-12T07:03:03;19.65;;;11.25;;
8458;SDS011;4266;48.816;9.154;2023-09-12T07:05:29;16.95;;;10.93;;
8458;SDS011;4266;48.816;9.154;2023-09-12T07:07:55;30.15;;;13.30;;
8458;SDS011;4266;48.816;9.154;2023-09-12T07:10:21;22.60;;;13.75;;
8458;SDS011;4266;48.816;9.154;2023-09-12T07:12:47;19.15;;;12.02;;
8458;SDS011;4266;48.816;9.154;2023-09-12T07:15:13;18.42;;;11.57;;
8458;SDS011;4266;48.816;9.154;2023-09-12T07:17:39;16.08;;;11.63;;
8458;SDS011;4266;48.816;9.154;2023-09-12T07:20:05;17.58;;;11.85;;
8458;SDS011;4266;48.816;9.154;2023-09-12T07:22:32;15.77;;;11.82;;
8458;SDS011;4266;48.816;9.154;2023-09-12T07:24:59;22.42;;;12.70;;
8458;SDS011;4266;48.816;9.154;2023-09-12T07:27:24;19.23;;;11.90;;
8458;SDS011;4266;48.816;9.154;2023-09-12T07:29:50;18.90;;;11.73;;
8458;SDS011;4266;48.816;9.154;2023-09-12T07:32:15;19.08;;;12.43;;
8458;SDS011;4266;48.816;9.154;2023-09-12T07:34:41;34.22;;;13.40;;
8458;SDS011;4266;48.816;9.154;2023-09-12T07:37:07;17.75;;;12.35;;
8458;SDS011;4266;48.816;9.154;2023-09-12T07:39:33;17.52;;;11.95;;
8458;SDS011;4266;48.816;9.154;2023-09-12T07:41:59;24.02;;;11.60;;
8458;SDS011;4266;48.816;9.154;2023-09-12T07:44:24;21.20;;;12.18;;
8458;SDS011;4266;48.816;9.154;2023-09-12T07:46:50;17.85;;;11.88;;
8458;SDS011;4266;48.816;9.154;2023-09-12T07:49:16;20.80;;;11.27;;
8458;SDS011;4266;48.816;9.154;2023-09-12T07:51:41;15.85;;;10.70;;
8458;SDS011;4266;48.816;9.154;2023-09-12T07:54:07;18.55;;;10.75;;
8458;SDS011;4266;48.816;9.154;2023-09-12T07:56:33;19.95;;;10.85;;
8458;SDS011;4266;48.816;9.154;2023-09-12T07:58:58;16.42;;;10.27;;
8458;SDS011;4266;48.816;9.154;2023-09-12T08:01:24;21.02;;;11.15;;
8458;SDS011;4266;48.816;9.154;2023-09-12T08:03:50;14.57;;;10.73;;
8458;SDS011;4266;48.816;9.154;2023-09-12T08:06:15;16.95;;;10.70;;
8458;SDS011;4266;48.816;9.154;2023-09-12T08:08:41;19.10;;;11.55;;
8458;SDS011;4266;48.816;9.154;2023-09-12T08:11:07;19.35;;;11.00;;
8458;SDS011;4266;48.816;9.154;2023-09-12T08:13:32;19.50;;;10.60;;
8458;SDS011;4266;48.816;9.154;2023-09-12T08:15:59;19.77;;;10.57;;
8458;SDS011;4266;48.816;9.154;2023-09-12T08:18:26;20.50;;;10.90;;
8458;SDS011;4266;48.816;9.154;2023-09-12T08:20:50;25.02;;;10.73;;
8458;SDS011;4266;48.816;9.154;2023-09-12T08:23:16;19.65;;;10.75;;
8458;SDS011;4266;48.816;9.154;2023-09-12T08:25:42;25.45;;;11.25;;
8458;SDS011;4266;48.816;9.154;2023-09-12T08:28:08;17.95;;;11.52;;
8458;SDS011;4266;48.816;9.154;2023-09-12T08:30:33;20.20;;;11.20;;
8458;SDS011;4266;48.816;9.154;2023-09-12T08:33:00;17.20;;;11.27;;
8458;SDS011;4266;48.816;9.154;2023-09-12T08:35:25;21.62;;;11.05;;
8458;SDS011;4266;48.816;9.154;2023-09-12T08:37:51;20.23;;;11.43;;
8458;SDS011;4266;48.816;9.154;2023-09-12T08:40:17;18.60;;;11.68;;
8458;SDS011;4266;48.816;9.154;2023-09-12T08:42:43;13.75;;;10.90;;
8458;SDS011;4266;48.816;9.154;2023-09-12T08:45:13;16.90;;;11.15;;
8458;SDS011;4266;48.816;9.154;2023-09-12T08:47:41;16.58;;;10.32;;
8458;SDS011;4266;48.816;9.154;2023-09-12T08:50:06;15.48;;;11.32;;
8458;SDS011;4266;48.816;9.154;2023-09-12T08:52:34;17.83;;;10.90;;
8458;SDS011;4266;48.816;9.154;2023-09-12T08:55:00;20.33;;;11.57;;
8458;SDS011;4266;48.816;9.154;2023-09-12T08:57:27;15.90;;;10.70;;
8458;SDS011;4266;48.816;9.154;2023-09-12T08:59:52;19.85;;;10.50;;
8458;SDS011;4266;48.816;9.154;2023-09-12T09:02:18;15.38;;;11.15;;
8458;SDS011;4266;48.816;9.154;2023-09-12T09:04:45;16.58;;;11.15;;
8458;SDS011;4266;48.816;9.154;2023-09-12T09:07:11;13.35;;;10.65;;
8458;SDS011;4266;48.816;9.154;2023-09-12T09:09:38;17.50;;;10.30;;
8458;SDS011;4266;48.816;9.154;2023-09-12T09:12:06;19.70;;;10.38;;
8458;SDS011;4266;48.816;9.154;2023-09-12T09:14:33;11.52;;;10.35;;
8458;SDS011;4266;48.816;9.154;2023-09-12T09:16:59;17.77;;;10.95;;
8458;SDS011;4266;48.816;9.154;2023-09-12T09:19:39;24.90;;;11.25;;
8458;SDS011;4266;48.816;9.154;2023-09-12T09:22:05;15.88;;;10.48;;
8458;SDS011;4266;48.816;9.154;2023-09-12T09:24:30;16.12;;;10.20;;
8458;SDS011;4266;48.816;9.154;2023-09-12T09:26:56;15.32;;;9.65;;
8458;SDS011;4266;48.816;9.154;2023-09-12T09:29:21;17.02;;;9.48;;
8458;SDS011;4266;48.816;9.154;2023-09-12T09:31:50;16.80;;;9.85;;
8458;SDS011;4266;48.816;9.154;2023-09-12T09:34:14;14.07;;;9.35;;
8458;SDS011;4266;48.816;9.154;2023-09-12T09:36:41;12.50;;;9.88;;
8458;SDS011;4266;48.816;9.154;2023-09-12T09:39:09;17.30;;;9.75;;
8458;SDS011;4266;48.816;9.154;2023-09-12T09:41:35;16.98;;;9.20;;
8458;SDS011;4266;48.816;9.154;2023-09-12T09:44:01;20.58;;;9.07;;
8458;SDS011;4266;48.816;9.154;2023-09-12T09:46:27;13.50;;;10.15;;
8458;SDS011;4266;48.816;9.154;2023-09-12T09:48:52;11.15;;;7.87;;
8458;SDS011;4266;48.816;9.154;2023-09-12T09:51:19;16.60;;;8.57;;
8458;SDS011;4266;48.816;9.154;2023-09-12T09:53:45;13.52;;;8.98;;
8458;SDS011;4266;48.816;9.154;2023-09-12T09:56:12;17.58;;;8.20;;
8458;SDS011;4266;48.816;9.154;2023-09-12T09:58:53;13.38;;;8.32;;
8458;SDS011;4266;48.816;9.154;2023-09-12T10:01:21;14.75;;;9.25;;
8458;SDS011;4266;48.816;9.154;2023-09-12T10:03:47;17.80;;;9.02;;
8458;SDS011;4266;48.816;9.154;2023-09-12T10:06:13;13.18;;;8.52;;
8458;SDS011;4266;48.816;9.154;2023-09-12T10:08:40;14.45;;;9.02;;
8458;SDS011;4266;48.816;9.154;2023-09-12T10:11:05;12.82;;;9.05;;
8458;SDS011;4266;48.816;9.154;2023-09-12T10:13:31;17.33;;;9.25;;
8458;SDS011;4266;48.816;9.154;2023-09-12T10:15:56;13.27;;;9.25;;
8458;SDS011;4266;48.816;9.154;2023-09-12T10:18:22;18.15;;;9.23;;
8458;SDS011;4266;48.816;9.154;2023-09-12T10:20:50;12.48;;;8.93;;
8458;SDS011;4266;48.816;9.154;2023-09-12T10:23:18;14.95;;;9.90;;
8458;SDS011;4266;48.816;9.154;2023-09-12T10:25:40;17.00;;;9.73;;
8458;SDS011;4266;48.816;9.154;2023-09-12T10:28:06;15.50;;;9.07;;
8458;SDS011;4266;48.816;9.154;2023-09-12T10:30:32;18.42;;;8.73;;
8458;SDS011;4266;48.816;9.154;2023-09-12T10:32:57;15.55;;;8.60;;
8458;SDS011;4266;48.816;9.154;2023-09-12T10:35:23;14.82;;;8.30;;
8458;SDS011;4266;48.816;9.154;2023-09-12T10:37:49;12.63;;;8.10;;
8458;SDS011;4266;48.816;9.154;2023-09-12T10:40:14;17.33;;;8.70;;
8458;SDS011;4266;48.816;9.154;2023-09-12T10:42:40;15.68;;;8.43;;
8458;SDS011;4266;48.816;9.154;2023-09-12T10:45:06;15.27;;;9.05;;
8458;SDS011;4266;48.816;9.154;2023-09-12T10:47:32;14.85;;;8.23;;
8458;SDS011;4266;48.816;9.154;2023-09-12T10:49:58;13.43;;;9.10;;
8458;SDS011;4266;48.816;9.154;2023-09-12T10:52:27;11.77;;;8.63;;
8458;SDS011;4266;48.816;9.154;2023-09-12T10:54:53;11.52;;;8.25;;
8458;SDS011;4266;48.816;9.154;2023-09-12T10:57:19;17.65;;;8.70;;
8458;SDS011;4266;48.816;9.154;2023-09-12T11:02:28;13.15;;;8.20;;
8458;SDS011;4266;48.816;9.154;2023-09-12T11:04:59;10.85;;;8.05;;
8458;SDS011;4266;48.816;9.154;2023-09-12T11:07:30;12.55;;;8.98;;
8458;SDS011;4266;48.816;9.154;2023-09-12T11:10:19;18.67;;;8.68;;
8458;SDS011;4266;48.816;9.154;2023-09-12T11:12:48;15.63;;;8.93;;
8458;SDS011;4266;48.816;9.154;2023-09-12T11:15:13;15.52;;;8.23;;
8458;SDS011;4266;48.816;9.154;2023-09-12T11:17:40;10.15;;;8.10;;
8458;SDS011;4266;48.816;9.154;2023-09-12T11:20:12;12.98;;;8.90;;
8458;SDS011;4266;48.816;9.154;2023-09-12T11:22:41;18.02;;;8.55;;
8458;SDS011;4266;48.816;9.154;2023-09-12T11:25:25;12.73;;;8.48;;
8458;SDS011;4266;48.816;9.154;2023-09-12T11:30:32;10.38;;;8.18;;
8458;SDS011;4266;48.816;9.154;2023-09-12T11:32:58;11.70;;;8.48;;
8458;SDS011;4266;48.816;9.154;2023-09-12T11:35:24;13.43;;;8.82;;
8458;SDS011;4266;48.816;9.154;2023-09-12T11:37:50;17.98;;;8.57;;
8458;SDS011;4266;48.816;9.154;2023-09-12T11:40:17;17.37;;;8.73;;
8458;SDS011;4266;48.816;9.154;2023-09-12T11:42:43;17.33;;;8.27;;
8458;SDS011;4266;48.816;9.154;2023-09-12T11:45:09;13.90;;;8.50;;
8458;SDS011;4266;48.816;9.154;2023-09-12T11:47:34;15.40;;;8.45;;
8458;SDS011;4266;48.816;9.154;2023-09-12T11:50:00;18.12;;;8.13;;
8458;SDS011;4266;48.816;9.154;2023-09-12T11:52:25;12.00;;;8.10;;
8458;SDS011;4266;48.816;9.154;2023-09-12T11:54:53;13.45;;;8.05;;
8458;SDS011;4266;48.816;9.154;2023-09-12T11:57:18;11.40;;;8.38;;
8458;SDS011;4266;48.816;9.154;2023-09-12T11:59:44;13.20;;;8.00;;
8458;SDS011;4266;48.816;9.154;2023-09-12T12:02:10;10.52;;;8.25;;
8458;SDS011;4266;48.816;9.154;2023-09-12T12:04:36;12.40;;;7.90;;
8458;SDS011;4266;48.816;9.154;2023-09-12T12:07:02;15.25;;;9.05;;
8458;SDS011;4266;48.816;9.154;2023-09-12T12:09:28;12.35;;;8.25;;
8458;SDS011;4266;48.816;9.154;2023-09-12T12:11:53;12.63;;;7.45;;
8458;SDS011;4266;48.816;9.154;2023-09-12T12:14:19;11.52;;;7.53;;
8458;SDS011;4266;48.816;9.154;2023-09-12T12:16:45;14.35;;;8.70;;
8458;SDS011;4266;48.816;9.154;2023-09-12T12:19:12;9.95;;;7.75;;
8458;SDS011;4266;48.816;9.154;2023-09-12T12:21:39;9.13;;;7.72;;
8458;SDS011;4266;48.816;9.154;2023-09-12T12:24:07;9.32;;;8.45;;
8458;SDS011;4266;48.816;9.154;2023-09-12T12:26:33;14.90;;;8.43;;
8458;SDS011;4266;48.816;9.154;2023-09-12T12:29:00;10.95;;;8.15;;
8458;SDS011;4266;48.816;9.154;2023-09-12T12:31:25;8.07;;;7.15;;
8458;SDS011;4266;48.816;9.154;2023-09-12T12:33:54;20.65;;;7.45;;
8458;SDS011;4266;48.816;9.154;2023-09-12T12:36:19;10.07;;;7.30;;
8458;SDS011;4266;48.816;9.154;2023-09-12T12:38:45;13.07;;;7.43;;
8458;SDS011;4266;48.816;9.154;2023-09-12T12:41:11;19.95;;;8.23;;
8458;SDS011;4266;48.816;9.154;2023-09-12T12:43:39;8.40;;;7.50;;
8458;SDS011;4266;48.816;9.154;2023-09-12T12:46:03;12.25;;;7.60;;
8458;SDS011;4266;48.816;9.154;2023-09-12T12:48:31;15.43;;;7.53;;
8458;SDS011;4266;48.816;9.154;2023-09-12T12:50:56;11.15;;;7.22;;
8458;SDS011;4266;48.816;9.154;2023-09-12T12:56:00;14.30;;;7.28;;
8458;SDS011;4266;48.816;9.154;2023-09-12T12:58:26;13.02;;;8.07;;
8458;SDS011;4266;48.816;9.154;2023-09-12T13:00:51;9.90;;;7.50;;
8458;SDS011;4266;48.816;9.154;2023-09-12T13:03:17;10.23;;;7.30;;
8458;SDS011;4266;48.816;9.154;2023-09-12T13:05:43;17.08;;;7.85;;
8458;SDS011;4266;48.816;9.154;2023-09-12T13:08:08;10.73;;;7.90;;
8458;SDS011;4266;48.816;9.154;2023-09-12T13:10:34;13.35;;;8.20;;
8458;SDS011;4266;48.816;9.154;2023-09-12T13:13:00;10.52;;;7.40;;
8458;SDS011;4266;48.816;9.154;2023-09-12T13:15:25;11.18;;;7.78;;
8458;SDS011;4266;48.816;9.154;2023-09-12T13:17:51;10.90;;;7.50;;
8458;SDS011;4266;48.816;9.154;2023-09-12T13:20:17;11.50;;;8.18;;
8458;SDS011;4266;48.816;9.154;2023-09-12T13:22:42;18.12;;;7.97;;
8458;SDS011;4266;48.816;9.154;2023-09-12T13:25:08;10.23;;;8.20;;
8458;SDS011;4266;48.816;9.154;2023-09-12T13:27:35;13.98;;;7.70;;
8458;SDS011;4266;48.816;9.154;2023-09-12T13:30:00;8.60;;;7.43;;
8458;SDS011;4266;48.816;9.154;2023-09-12T13:32:26;11.68;;;7.57;;
8458;SDS011;4266;48.816;9.154;2023-09-12T13:34:52;12.63;;;7.75;;
8458;SDS011;4266;48.816;9.154;2023-09-12T13:37:17;8.95;;;7.30;;
8458;SDS011;4266;48.816;9.154;2023-09-12T13:39:44;11.35;;;7.72;;
8458;SDS011;4266;48.816;9.154;2023-09-12T13:42:11;11.63;;;8.00;;
8458;SDS011;4266;48.816;9.154;2023-09-12T13:44:37;9.85;;;7.30;;
8458;SDS011;4266;48.816;9.154;2023-09-12T13:47:02;9.52;;;7.55;;
8458;SDS011;4266;48.816;9.154;2023-09-12T13:49:28;11.75;;;7.80;;
8458;SDS011;4266;48.816;9.154;2023-09-12T13:51:54;12.40;;;7.97;;
8458;SDS011;4266;48.816;9.154;2023-09-12T13:54:20;14.73;;;7.72;;
8458;SDS011;4266;48.816;9.154;2023-09-12T13:56:45;8.80;;;7.60;;
8458;SDS011;4266;48.816;9.154;2023-09-12T13:59:11;15.73;;;7.55;;
8458;SDS011;4266;48.816;9.154;2023-09-12T14:01:38;8.90;;;7.50;;
8458;SDS011;4266;48.816;9.154;2023-09-12T14:04:03;12.20;;;8.05;;
8458;SDS011;4266;48.816;9.154;2023-09-12T14:06:29;9.20;;;7.53;;
8458;SDS011;4266;48.816;9.154;2023-09-12T14:08:55;9.60;;;7.12;;
8458;SDS011;4266;48.816;9.154;2023-09-12T14:11:20;12.80;;;7.45;;
8458;SDS011;4266;48.816;9.154;2023-09-12T14:13:46;13.80;;;8.55;;
8458;SDS011;4266;48.816;9.154;2023-09-12T14:16:12;13.30;;;7.87;;
8458;SDS011;4266;48.816;9.154;2023-09-12T14:18:37;14.02;;;8.07;;
8458;SDS011;4266;48.816;9.154;2023-09-12T14:21:03;11.05;;;7.82;;
8458;SDS011;4266;48.816;9.154;2023-09-12T14:23:30;17.77;;;7.72;;
8458;SDS011;4266;48.816;9.154;2023-09-12T14:25:56;13.27;;;7.62;;
8458;SDS011;4266;48.816;9.154;2023-09-12T14:28:23;10.75;;;8.13;;
8458;SDS011;4266;48.816;9.154;2023-09-12T14:30:48;13.88;;;7.97;;
8458;SDS011;4266;48.816;9.154;2023-09-12T14:33:14;15.35;;;7.95;;
8458;SDS011;4266;48.816;9.154;2023-09-12T14:35:40;13.93;;;7.57;;
8458;SDS011;4266;48.816;9.154;2023-09-12T14:38:05;17.25;;;8.02;;
8458;SDS011;4266;48.816;9.154;2023-09-12T14:40:31;9.55;;;7.70;;
8458;SDS011;4266;48.816;9.154;2023-09-12T14:42:58;10.85;;;8.35;;
8458;SDS011;4266;48.816;9.154;2023-09-12T14:45:23;12.05;;;7.75;;
8458;SDS011;4266;48.816;9.154;2023-09-12T14:47:49;12.00;;;7.90;;
8458;SDS011;4266;48.816;9.154;2023-09-12T14:50:15;13.57;;;8.77;;
8458;SDS011;4266;48.816;9.154;2023-09-12T14:52:40;13.02;;;8.13;;
8458;SDS011;4266;48.816;9.154;2023-09-12T14:55:06;12.32;;;8.05;;
8458;SDS011;4266;48.816;9.154;2023-09-12T14:57:33;11.85;;;8.60;;
8458;SDS011;4266;48.816;9.154;2023-09-12T14:59:59;12.93;;;8.18;;
8458;SDS011;4266;48.816;9.154;2023-09-12T15:02:25;15.85;;;8.65;;
8458;SDS011;4266;48.816;9.154;2023-09-12T15:04:50;13.52;;;8.40;;
8458;SDS011;4266;48.816;9.154;2023-09-12T15:07:16;13.02;;;7.90;;
8458;SDS011;4266;48.816;9.154;2023-09-12T15:09:41;11.80;;;7.90;;
8458;SDS011;4266;48.816;9.154;2023-09-12T15:12:07;10.68;;;7.93;;
8458;SDS011;4266;48.816;9.154;2023-09-12T15:14:34;11.10;;;7.72;;
8458;SDS011;4266;48.816;9.154;2023-09-12T15:17:00;11.55;;;7.72;;
8458;SDS011;4266;48.816;9.154;2023-09-12T15:19:26;12.35;;;8.35;;
8458;SDS011;4266;48.816;9.154;2023-09-12T15:21:52;12.50;;;8.38;;
8458;SDS011;4266;48.816;9.154;2023-09-12T15:24:17;10.55;;;7.32;;
8458;SDS011;4266;48.816;9.154;2023-09-12T15:26:43;13.77;;;7.50;;
8458;SDS011;4266;48.816;9.154;2023-09-12T15:29:10;9.88;;;8.13;;
8458;SDS011;4266;48.816;9.154;2023-09-12T15:31:35;9.13;;;8.23;;
8458;SDS011;4266;48.816;9.154;2023-09-12T15:34:02;13.77;;;8.00;;
8458;SDS011;4266;48.816;9.154;2023-09-12T15:36:28;13.27;;;7.85;;
8458;SDS011;4266;48.816;9.154;2023-09-12T15:38:55;13.38;;;8.18;;
8458;SDS011;4266;48.816;9.154;2023-09-12T15:41:22;11.60;;;8.27;;
8458;SDS011;4266;48.816;9.154;2023-09-12T15:43:47;14.43;;;8.45;;
8458;SDS011;4266;48.816;9.154;2023-09-12T15:46:14;11.25;;;8.23;;
8458;SDS011;4266;48.816;9.154;2023-09-12T15:48:40;9.77;;;8.38;;
8458;SDS011;4266;48.816;9.154;2023-09-12T15:51:07;9.70;;;7.55;;
8458;SDS011;4266;48.816;9.154;2023-09-12T15:53:32;11.25;;;8.02;;
8458;SDS011;4266;48.816;9.154;2023-09-12T15:55:58;14.15;;;8.23;;